Time;durP1;ratioP1;P1;durP2;ratioP2;P2;SDS_P1;SDS_P2;PMS_P1;PMS_P2;Temp;Humidity;BMP_temperature;BMP_pressure;BME280_temperature;BME280_humidity;BME280_pressure;Samples;Min_cycle;Max_cycle;Signal;HPM_P1;HPM_P2
2022/03/24 00:02:14;;;;;;;52.35;33.50;;;6.70;99.90;;;;;;5032774;28;20049;-86
2022/03/24 00:04:40;;;;;;;49.50;32.95;;;7.20;99.90;;;;;;5016630;28;20049;-86
2022/03/24 00:07:06;;;;;;;46.38;31.63;;;7.10;99.90;;;;;;5032968;28;20399;-86
2022/03/24 00:09:32;;;;;;;54.70;37.00;;;6.60;99.90;;;;;;5016260;28;20041;-87
2022/03/24 00:11:58;;;;;;;56.65;37.17;;;6.70;99.90;;;;;;5017944;28;20041;-86
2022/03/24 00:14:23;;;;;;;61.20;37.35;;;6.60;99.90;;;;;;5035672;28;20050;-85
2022/03/24 00:16:49;;;;;;;54.53;36.58;;;6.60;99.90;;;;;;5034554;28;20147;-85
2022/03/24 00:19:17;;;;;;;56.22;35.78;;;6.60;99.90;;;;;;5025785;28;20065;-87
2022/03/24 00:21:43;;;;;;;59.03;38.40;;;6.60;99.90;;;;;;5034188;28;20044;-84
2022/03/24 00:24:09;;;;;;;56.08;37.15;;;6.60;99.90;;;;;;5000718;28;20077;-87
2022/03/24 00:26:35;;;;;;;67.18;41.92;;;6.50;99.90;;;;;;5000786;28;20088;-86
2022/03/24 00:29:02;;;;;;;61.53;38.80;;;7.70;99.90;;;;;;5015831;28;20060;-86
2022/03/24 00:31:28;;;;;;;58.65;37.60;;;6.40;99.90;;;;;;5016270;28;20125;-87
2022/03/24 00:33:55;;;;;;;59.28;41.15;;;7.60;99.90;;;;;;5009771;28;20473;-86
2022/03/24 00:36:21;;;;;;;55.50;37.22;;;6.30;99.90;;;;;;5031448;28;20049;-86
2022/03/24 00:38:46;;;;;;;55.53;38.53;;;6.50;99.90;;;;;;5032842;28;20079;-85
2022/03/24 00:41:12;;;;;;;58.80;38.85;;;6.20;99.90;;;;;;5040884;28;20144;-86
2022/03/24 00:43:39;;;;;;;61.25;39.15;;;6.80;99.90;;;;;;5027452;28;20041;-86
2022/03/24 00:46:05;;;;;;;59.50;40.35;;;6.10;99.90;;;;;;5016544;28;20042;-87
2022/03/24 00:48:31;;;;;;;56.30;37.80;;;6.10;99.90;;;;;;5016708;28;20385;-86
2022/03/24 00:50:57;;;;;;;64.28;38.83;;;6.10;99.90;;;;;;5015681;28;20075;-86
2022/03/24 00:53:23;;;;;;;61.03;39.63;;;6.00;99.90;;;;;;5015531;28;20139;-87
2022/03/24 00:55:49;;;;;;;60.10;39.33;;;6.80;99.90;;;;;;5031334;28;20111;-87
2022/03/24 00:58:15;;;;;;;59.85;39.67;;;5.90;99.90;;;;;;5032107;28;20041;-87
2022/03/24 01:00:42;;;;;;;62.95;39.08;;;6.50;99.90;;;;;;5001014;28;20058;-85
2022/03/24 01:03:09;;;;;;;59.95;39.60;;;5.90;99.90;;;;;;5011485;28;20057;-86
2022/03/24 01:05:37;;;;;;;63.63;41.33;;;5.80;99.90;;;;;;4999760;28;20492;-86
2022/03/24 01:08:05;;;;;;;63.53;40.63;;;5.80;99.90;;;;;;5032128;28;20049;-86
2022/03/24 01:10:31;;;;;;;69.07;43.22;;;5.80;99.90;;;;;;5031258;28;20049;-86
2022/03/24 01:12:59;;;;;;;65.97;42.17;;;5.80;99.90;;;;;;5026568;28;20043;-87
2022/03/24 01:15:25;;;;;;;67.82;42.72;;;6.10;99.90;;;;;;4999249;28;20049;-87
2022/03/24 01:17:51;;;;;;;64.60;42.67;;;6.30;99.90;;;;;;5032201;28;20045;-86
2022/03/24 01:20:17;;;;;;;65.25;42.35;;;5.60;99.90;;;;;;5014873;28;20169;-87
2022/03/24 01:22:43;;;;;;;70.10;43.88;;;6.40;99.90;;;;;;5032141;28;20045;-88
2022/03/24 01:25:09;;;;;;;76.72;44.38;;;5.50;99.90;;;;;;5015017;28;20125;-87
2022/03/24 01:27:38;;;;;;;67.00;43.88;;;5.50;99.90;;;;;;5033162;28;20111;-88
2022/03/24 01:30:05;;;;;;;64.68;42.22;;;6.50;99.90;;;;;;5032412;28;20045;-87
2022/03/24 01:32:31;;;;;;;64.50;42.08;;;5.40;99.90;;;;;;5031286;28;20079;-87
2022/03/24 01:34:57;;;;;;;65.50;41.60;;;5.30;99.90;;;;;;5031369;28;20060;-87
2022/03/24 01:37:23;;;;;;;67.38;43.28;;;5.50;99.90;;;;;;5015130;28;20053;-87
2022/03/24 01:39:52;;;;;;;69.68;43.65;;;5.60;99.90;;;;;;4999266;28;20053;-87
2022/03/24 01:42:18;;;;;;;65.82;43.72;;;5.20;99.90;;;;;;5014963;28;20045;-87
2022/03/24 01:44:47;;;;;;;67.38;42.78;;;5.10;99.90;;;;;;5032407;28;20045;-88
2022/03/24 01:47:13;;;;;;;65.53;43.95;;;5.10;99.90;;;;;;5015249;28;20053;-87
2022/03/24 01:49:43;;;;;;;69.88;43.92;;;5.10;99.90;;;;;;4998637;28;20492;-88
2022/03/24 01:52:10;;;;;;;74.10;44.35;;;5.00;99.90;;;;;;5031341;28;20064;-88
2022/03/24 01:54:38;;;;;;;66.70;43.90;;;5.00;99.90;;;;;;5015255;28;20046;-88
2022/03/24 01:57:07;;;;;;;67.90;43.05;;;4.90;99.90;;;;;;5030731;28;20041;-87
2022/03/24 01:59:33;;;;;;;68.70;43.78;;;4.90;99.90;;;;;;5015208;28;20056;-88
2022/03/24 02:01:58;;;;;;;69.07;43.30;;;4.90;99.90;;;;;;4997982;28;20386;-87
2022/03/24 02:04:24;;;;;;;70.38;42.78;;;5.60;99.90;;;;;;5013411;28;20076;-87
2022/03/24 02:06:51;;;;;;;69.75;43.03;;;4.80;99.90;;;;;;4982027;28;20131;-89
2022/03/24 02:09:17;;;;;;;69.38;42.58;;;4.90;99.90;;;;;;5030163;28;20421;-87
2022/03/24 02:11:42;;;;;;;67.75;43.35;;;4.80;99.90;;;;;;5030890;28;20048;-88
2022/03/24 02:14:08;;;;;;;71.05;44.22;;;4.70;99.90;;;;;;5014168;28;20053;-87
2022/03/24 02:16:38;;;;;;;71.38;44.35;;;4.70;99.90;;;;;;5014280;28;20064;-87
2022/03/24 02:19:11;;;;;;;68.80;44.38;;;4.70;99.90;;;;;;5014688;28;20428;-88
2022/03/24 02:21:40;;;;;;;74.28;46.90;;;4.70;99.90;;;;;;5014856;28;20426;-87
2022/03/24 02:24:06;;;;;;;71.05;44.40;;;4.70;99.90;;;;;;5030062;28;20045;-87
2022/03/24 02:26:32;;;;;;;75.40;46.42;;;4.70;99.90;;;;;;5031646;28;20041;-88
2022/03/24 02:28:57;;;;;;;76.57;46.75;;;5.00;99.90;;;;;;4997075;28;20053;-87
2022/03/24 02:31:24;;;;;;;85.43;50.65;;;4.60;99.90;;;;;;5014571;28;20054;-88
2022/03/24 02:34:37;;;;;;;74.75;47.30;;;4.60;99.90;;;;;;5014596;28;20053;-87
2022/03/24 02:36:39;;;;;;;81.35;49.67;;;5.10;99.90;;;;;;5031490;28;20037;-85
2022/03/24 02:39:05;;;;;;;78.55;48.42;;;4.60;99.90;;;;;;5049704;28;20088;-84
2022/03/24 02:41:31;;;;;;;75.32;47.65;;;4.60;99.90;;;;;;5042353;28;20037;-87
2022/03/24 02:43:57;;;;;;;78.93;49.42;;;4.60;99.90;;;;;;5032397;28;20049;-87
2022/03/24 02:46:23;;;;;;;78.85;48.88;;;4.60;99.90;;;;;;5031671;28;20052;-88
2022/03/24 02:48:49;;;;;;;77.53;46.88;;;4.90;99.90;;;;;;5021526;28;20049;-86
2022/03/24 02:51:15;;;;;;;74.97;46.70;;;5.20;99.90;;;;;;5000883;28;20052;-87
2022/03/24 02:53:40;;;;;;;79.28;48.17;;;4.50;99.90;;;;;;5034148;28;20045;-88
2022/03/24 02:56:06;;;;;;;77.28;49.80;;;5.60;99.90;;;;;;5041452;28;20040;-86
2022/03/24 02:58:31;;;;;;;83.70;50.67;;;5.80;99.90;;;;;;5048670;28;20042;-88
2022/03/24 03:00:57;;;;;;;81.53;50.45;;;4.60;99.90;;;;;;5014608;28;20045;-87
2022/03/24 03:03:24;;;;;;;83.35;52.78;;;4.90;99.90;;;;;;5030532;28;20488;-87
2022/03/24 03:05:50;;;;;;;82.40;50.30;;;4.40;99.90;;;;;;4998823;28;20045;-86
2022/03/24 03:08:18;;;;;;;77.25;47.65;;;4.40;99.90;;;;;;5013732;28;20119;-88
2022/03/24 03:10:43;;;;;;;84.07;51.30;;;5.20;99.90;;;;;;5030331;28;20128;-88
2022/03/24 03:13:09;;;;;;;81.05;49.75;;;4.90;99.90;;;;;;5030400;28;20121;-88
2022/03/24 03:15:35;;;;;;;80.20;49.75;;;4.30;99.90;;;;;;5033363;28;20057;-89
2022/03/24 03:18:02;;;;;;;76.03;47.13;;;4.20;99.90;;;;;;5018198;28;20060;-88
2022/03/24 03:20:28;;;;;;;83.05;51.63;;;4.20;99.90;;;;;;5017786;28;20045;-88
2022/03/24 03:22:55;;;;;;;78.32;48.28;;;4.20;99.90;;;;;;5017333;28;20049;-88
2022/03/24 03:25:22;;;;;;;79.68;48.65;;;4.70;99.90;;;;;;5033676;28;20048;-87
2022/03/24 03:27:48;;;;;;;78.78;49.85;;;4.10;99.90;;;;;;5001048;28;20416;-88
2022/03/24 03:30:14;;;;;;;86.78;50.20;;;4.10;99.90;;;;;;5000693;28;20049;-87
2022/03/24 03:32:41;;;;;;;81.03;50.05;;;4.00;99.90;;;;;;5033602;28;20037;-87
2022/03/24 03:35:07;;;;;;;81.70;50.22;;;4.00;99.90;;;;;;5000686;28;20107;-86
2022/03/24 03:37:33;;;;;;;78.38;49.47;;;4.00;99.90;;;;;;5030548;28;20201;-86
2022/03/24 03:39:59;;;;;;;85.53;50.35;;;4.70;99.90;;;;;;5049723;28;20073;-88
2022/03/24 03:42:25;;;;;;;85.88;52.17;;;3.90;99.90;;;;;;5017582;28;20057;-89
2022/03/24 03:44:50;;;;;;;88.07;53.20;;;3.90;99.90;;;;;;5029292;28;20184;-86
2022/03/24 03:47:17;;;;;;;82.78;51.45;;;3.90;99.90;;;;;;5047083;28;20103;-87
2022/03/24 03:49:42;;;;;;;87.10;53.28;;;3.90;99.90;;;;;;5018440;28;20052;-88
2022/03/24 03:52:08;;;;;;;86.60;51.75;;;3.80;99.90;;;;;;5017827;28;20132;-87
2022/03/24 03:54:34;;;;;;;85.43;51.17;;;5.20;99.90;;;;;;5017155;28;20042;-89
2022/03/24 03:56:59;;;;;;;83.22;50.80;;;5.00;99.90;;;;;;5017412;28;20160;-87
2022/03/24 03:59:25;;;;;;;88.05;52.38;;;4.60;99.90;;;;;;5017245;28;20041;-88
2022/03/24 04:01:52;;;;;;;86.13;51.70;;;4.20;99.90;;;;;;5033826;28;20214;-87
2022/03/24 04:04:18;;;;;;;83.97;51.28;;;3.70;99.90;;;;;;5033162;28;20488;-87
2022/03/24 04:06:43;;;;;;;85.25;51.80;;;4.00;99.90;;;;;;5033116;28;20045;-87
2022/03/24 04:09:09;;;;;;;89.60;54.00;;;4.60;99.90;;;;;;5016461;28;20128;-85
2022/03/24 04:11:35;;;;;;;84.57;51.65;;;4.50;99.90;;;;;;5034359;28;20045;-87
2022/03/24 04:14:01;;;;;;;89.80;53.38;;;4.80;99.90;;;;;;5035327;28;20145;-86
2022/03/24 04:16:27;;;;;;;85.53;51.55;;;3.60;99.90;;;;;;5017239;28;20538;-86
2022/03/24 04:18:52;;;;;;;88.13;52.03;;;3.60;99.90;;;;;;5033364;28;20045;-87
2022/03/24 04:21:21;;;;;;;82.88;50.67;;;3.50;99.90;;;;;;5032912;28;20140;-87
2022/03/24 04:23:47;;;;;;;86.28;52.97;;;4.40;99.90;;;;;;5033244;28;20049;-87
2022/03/24 04:26:13;;;;;;;89.05;52.17;;;3.50;99.90;;;;;;5015668;28;20366;-87
2022/03/24 04:28:39;;;;;;;89.57;52.53;;;3.50;99.90;;;;;;5015722;28;20052;-86
2022/03/24 04:31:05;;;;;;;85.40;52.85;;;3.50;99.90;;;;;;5017937;28;20128;-87
2022/03/24 04:33:31;;;;;;;91.72;53.22;;;3.40;99.90;;;;;;5022436;28;20085;-88
2022/03/24 04:35:58;;;;;;;92.63;52.60;;;4.10;99.90;;;;;;5047473;28;20064;-86
2022/03/24 04:38:23;;;;;;;91.18;52.72;;;3.40;99.90;;;;;;5043607;28;20038;-87
2022/03/24 04:40:49;;;;;;;83.85;51.13;;;3.40;99.90;;;;;;5016629;28;20515;-87
2022/03/24 04:43:15;;;;;;;86.43;51.53;;;3.30;99.90;;;;;;5032882;28;20528;-84
2022/03/24 04:45:41;;;;;;;85.60;51.70;;;3.30;99.90;;;;;;5031945;28;20095;-88
2022/03/24 04:48:08;;;;;;;85.68;52.15;;;4.50;99.90;;;;;;5016000;28;20045;-87
2022/03/24 04:50:34;;;;;;;92.82;55.58;;;4.20;99.90;;;;;;5016092;28;20093;-86
2022/03/24 04:53:00;;;;;;;86.95;51.22;;;3.20;99.90;;;;;;5015537;28;20132;-87
2022/03/24 04:55:26;;;;;;;85.50;51.67;;;3.60;99.90;;;;;;5032292;28;20041;-88
2022/03/24 04:57:51;;;;;;;83.97;50.88;;;3.20;99.90;;;;;;5033749;28;20045;-85
2022/03/24 05:00:18;;;;;;;85.57;51.20;;;4.10;99.90;;;;;;5035991;28;20052;-85
2022/03/24 05:02:44;;;;;;;85.35;52.05;;;3.10;99.90;;;;;;5053046;28;20060;-86
2022/03/24 05:05:10;;;;;;;87.90;52.58;;;3.20;99.90;;;;;;5039499;28;20053;-89
2022/03/24 05:07:36;;;;;;;86.97;51.38;;;3.30;99.90;;;;;;5033142;28;20049;-87
2022/03/24 05:10:04;;;;;;;89.35;52.60;;;3.90;99.90;;;;;;5016477;28;20056;-87
2022/03/24 05:12:30;;;;;;;88.97;52.08;;;3.10;99.90;;;;;;5015279;28;20048;-87
2022/03/24 05:14:56;;;;;;;88.28;52.53;;;4.00;99.90;;;;;;5031912;28;20049;-86
2022/03/24 05:17:22;;;;;;;87.72;52.42;;;4.20;99.90;;;;;;5014584;28;20041;-87
2022/03/24 05:19:48;;;;;;;82.93;50.72;;;3.00;99.90;;;;;;5031676;28;20119;-87
2022/03/24 05:22:15;;;;;;;88.65;50.30;;;3.10;99.90;;;;;;5031587;28;20045;-86
2022/03/24 05:24:41;;;;;;;86.13;49.17;;;3.10;99.90;;;;;;5014660;28;20042;-87
2022/03/24 05:27:07;;;;;;;85.00;51.38;;;3.40;99.90;;;;;;5031649;28;20077;-87
2022/03/24 05:29:33;;;;;;;88.35;52.25;;;3.00;99.90;;;;;;5014620;28;20053;-86
2022/03/24 05:31:59;;;;;;;89.20;52.22;;;3.00;99.90;;;;;;5031373;28;20045;-86
2022/03/24 05:34:24;;;;;;;91.90;54.47;;;4.50;99.90;;;;;;5014360;28;20083;-86
2022/03/24 05:36:51;;;;;;;88.20;52.50;;;3.00;99.90;;;;;;5014843;28;20052;-86
2022/03/24 05:39:17;;;;;;;89.88;54.17;;;3.50;99.90;;;;;;5014584;28;20041;-87
2022/03/24 05:41:42;;;;;;;89.80;54.00;;;4.00;99.90;;;;;;5014333;28;20099;-87
2022/03/24 05:44:08;;;;;;;92.30;54.28;;;3.90;99.90;;;;;;5031341;28;20760;-85
2022/03/24 05:46:41;;;;;;;90.82;54.80;;;3.10;99.90;;;;;;5014494;28;20041;-86
2022/03/24 05:49:08;;;;;;;93.93;55.35;;;3.10;99.90;;;;;;5031340;28;20088;-86
2022/03/24 05:51:34;;;;;;;97.88;57.25;;;4.40;99.90;;;;;;5014101;28;20045;-86
2022/03/24 05:54:03;;;;;;;100.30;58.88;;;3.50;99.90;;;;;;5015212;28;20072;-88
2022/03/24 05:56:28;;;;;;;101.53;58.42;;;3.80;99.90;;;;;;5031061;28;20492;-87
2022/03/24 05:58:55;;;;;;;91.78;56.10;;;4.10;99.90;;;;;;5015098;28;20056;-88
2022/03/24 06:01:23;;;;;;;90.97;54.42;;;4.40;99.90;;;;;;5031901;28;20060;-85
2022/03/24 06:03:51;;;;;;;88.35;53.13;;;4.50;99.90;;;;;;5019168;28;20080;-86
2022/03/24 06:06:19;;;;;;;84.15;51.30;;;4.70;99.90;;;;;;5018615;28;20080;-87
2022/03/24 06:08:45;;;;;;;85.57;51.63;;;4.80;99.90;;;;;;5035036;28;20041;-87
2022/03/24 06:11:14;;;;;;;83.60;52.63;;;4.90;99.90;;;;;;5032307;28;20376;-87
2022/03/24 06:13:40;;;;;;;83.15;52.97;;;5.00;99.90;;;;;;5014695;28;20382;-88
2022/03/24 06:16:06;;;;;;;83.30;53.33;;;5.20;99.90;;;;;;5014076;28;20436;-88
2022/03/24 06:18:32;;;;;;;79.22;51.03;;;5.30;99.90;;;;;;5013548;28;20358;-86
2022/03/24 06:21:02;;;;;;;80.75;52.92;;;5.50;99.90;;;;;;5030679;28;20081;-87
2022/03/24 06:23:27;;;;;;;80.28;53.42;;;5.70;99.90;;;;;;5013440;28;20056;-87
2022/03/24 06:25:53;;;;;;;84.43;54.67;;;5.90;99.90;;;;;;4997673;28;20041;-86
2022/03/24 06:28:19;;;;;;;78.82;51.92;;;7.00;99.90;;;;;;5013121;28;20374;-86
2022/03/24 06:30:44;;;;;;;76.35;51.55;;;6.60;99.90;;;;;;4997193;28;20049;-85
2022/03/24 06:33:13;;;;;;;76.47;52.67;;;7.10;99.90;;;;;;5030186;28;20369;-86
2022/03/24 06:35:39;;;;;;;76.15;52.28;;;7.60;99.90;;;;;;5013579;28;20424;-87
2022/03/24 06:38:05;;;;;;;74.55;52.67;;;8.00;99.90;;;;;;5030256;28;20468;-86
2022/03/24 06:40:31;;;;;;;75.00;53.03;;;8.40;99.90;;;;;;5029638;28;20536;-87
2022/03/24 06:42:56;;;;;;;70.60;51.38;;;8.70;99.90;;;;;;5029676;28;20075;-86
2022/03/24 06:45:22;;;;;;;71.65;51.17;;;8.80;99.90;;;;;;5040029;28;20049;-85
2022/03/24 06:47:49;;;;;;;71.88;51.63;;;9.30;99.90;;;;;;5030458;28;20052;-86
2022/03/24 06:50:15;;;;;;;68.88;51.97;;;9.60;99.90;;;;;;5047016;28;20056;-85
2022/03/24 06:52:41;;;;;;;67.85;52.33;;;9.80;99.90;;;;;;5041293;28;20044;-86
2022/03/24 06:55:08;;;;;;;68.45;54.88;;;10.40;99.90;;;;;;5018488;28;20128;-86
2022/03/24 06:57:34;;;;;;;82.68;60.53;;;10.80;99.90;;;;;;5001574;28;20103;-85
2022/03/24 07:00:01;;;;;;;76.75;57.28;;;11.40;99.90;;;;;;5034042;28;20041;-86
2022/03/24 07:02:26;;;;;;;79.72;59.38;;;11.40;99.90;;;;;;5002243;28;20130;-85
2022/03/24 07:04:52;;;;;;;77.82;59.42;;;11.70;99.90;;;;;;5017593;28;20049;-86
2022/03/24 07:07:19;;;;;;;77.10;61.63;;;12.00;99.90;;;;;;5017507;28;20057;-86
2022/03/24 07:09:44;;;;;;;75.88;58.75;;;12.80;99.90;;;;;;5017242;28;20045;-85
2022/03/24 07:12:11;;;;;;;72.93;59.42;;;13.30;99.90;;;;;;5017445;28;20322;-86
2022/03/24 07:14:36;;;;;;;73.43;58.38;;;13.80;99.90;;;;;;5017116;28;20111;-86
2022/03/24 07:17:02;;;;;;;75.43;59.35;;;13.50;99.90;;;;;;5017504;28;20461;-85
2022/03/24 07:19:28;;;;;;;72.43;57.38;;;13.00;99.90;;;;;;5035042;28;20466;-87
2022/03/24 07:21:53;;;;;;;72.82;58.10;;;13.40;99.90;;;;;;5044948;28;20033;-83
2022/03/24 07:24:20;;;;;;;71.63;58.28;;;13.20;99.90;;;;;;5057221;28;20029;-84
2022/03/24 07:26:45;;;;;;;65.38;55.28;;;13.90;99.90;;;;;;5050336;28;20128;-85
2022/03/24 07:29:11;;;;;;;69.75;55.00;;;13.80;99.90;;;;;;5035589;28;20115;-86
2022/03/24 07:31:37;;;;;;;66.63;55.08;;;13.30;99.90;;;;;;5050618;28;20043;-85
2022/03/24 07:34:02;;;;;;;68.10;55.22;;;13.80;99.90;;;;;;5050021;28;20179;-85
2022/03/24 07:36:28;;;;;;;64.07;53.75;;;14.20;99.90;;;;;;5035807;28;20102;-85
2022/03/24 07:38:55;;;;;;;62.55;52.30;;;15.30;99.90;;;;;;5052653;28;20522;-86
2022/03/24 07:41:21;;;;;;;65.15;54.15;;;15.20;99.90;;;;;;5033716;28;20060;-85
2022/03/24 07:43:48;;;;;;;63.83;54.55;;;15.90;99.90;;;;;;5036165;28;20077;-85
2022/03/24 07:46:13;;;;;;;63.00;51.20;;;15.80;99.90;;;;;;5017759;28;20045;-85
2022/03/24 07:48:39;;;;;;;63.78;54.63;;;14.90;99.90;;;;;;5053746;28;20052;-85
2022/03/24 07:51:05;;;;;;;59.03;49.28;;;15.60;99.90;;;;;;5052258;28;20052;-85
2022/03/24 07:53:47;;;;;;;60.28;50.05;;;15.20;99.90;;;;;;5052732;28;20405;-85
2022/03/24 07:56:13;;;;;;;61.78;50.97;;;15.50;99.90;;;;;;5037361;28;20053;-84
2022/03/24 07:58:39;;;;;;;60.33;51.85;;;15.60;99.90;;;;;;5031089;28;20055;-83
2022/03/24 08:01:06;;;;;;;58.28;50.33;;;15.80;99.90;;;;;;5034030;28;20122;-84
2022/03/24 08:03:31;;;;;;;58.05;48.60;;;15.60;99.90;;;;;;5035940;28;20033;-85
2022/03/24 08:05:57;;;;;;;52.25;44.92;;;16.10;99.90;;;;;;5049193;28;20098;-85
2022/03/24 08:08:23;;;;;;;51.50;41.22;;;16.40;99.90;;;;;;5036071;28;20460;-84
2022/03/24 08:10:49;;;;;;;47.67;36.35;;;16.60;99.90;;;;;;5035267;28;20044;-84
2022/03/24 08:13:16;;;;;;;53.40;45.22;;;16.70;99.90;;;;;;5018684;28;20534;-83
2022/03/24 08:15:43;;;;;;;61.35;44.50;;;17.00;99.90;;;;;;5002849;28;20102;-84
2022/03/24 08:18:09;;;;;;;50.17;42.08;;;17.70;99.60;;;;;;5019691;28;20048;-84
2022/03/24 08:20:38;;;;;;;52.92;43.05;;;18.40;99.20;;;;;;5054136;28;20041;-84
2022/03/24 08:23:10;;;;;;;48.70;41.08;;;18.40;98.60;;;;;;5036289;28;20053;-84
2022/03/24 08:25:37;;;;;;;49.80;39.67;;;19.00;95.70;;;;;;5035154;28;20049;-83
2022/03/24 08:28:03;;;;;;;51.33;42.08;;;19.20;93.20;;;;;;5050440;28;20091;-82
2022/03/24 08:30:29;;;;;;;46.25;41.22;;;19.70;93.90;;;;;;5033848;28;20143;-82
2022/03/24 08:32:54;;;;;;;49.42;44.08;;;19.50;94.30;;;;;;5045272;28;20147;-83
2022/03/24 08:35:20;;;;;;;47.17;39.78;;;19.00;96.10;;;;;;5030052;28;20048;-83
2022/03/24 08:37:46;;;;;;;42.65;36.05;;;18.70;94.00;;;;;;5008932;28;20045;-83
2022/03/24 08:40:12;;;;;;;43.35;34.15;;;18.70;93.90;;;;;;5042024;28;20029;-83
2022/03/24 08:42:38;;;;;;;44.95;36.72;;;19.50;92.70;;;;;;5041627;28;20532;-82
2022/03/24 08:45:05;;;;;;;44.22;36.78;;;20.30;91.00;;;;;;5041311;28;20049;-83
2022/03/24 08:47:31;;;;;;;49.13;38.97;;;19.90;91.80;;;;;;5050216;28;20041;-83
2022/03/24 08:49:57;;;;;;;45.05;34.78;;;20.50;91.10;;;;;;5033406;28;20135;-83
2022/03/24 08:52:22;;;;;;;42.05;37.25;;;20.80;88.50;;;;;;5050056;28;20045;-82
2022/03/24 08:54:49;;;;;;;47.33;36.95;;;20.70;89.50;;;;;;5049765;28;20305;-83
2022/03/24 08:57:15;;;;;;;41.35;36.88;;;20.60;90.50;;;;;;5051830;28;20079;-83
2022/03/24 08:59:40;;;;;;;48.22;37.67;;;20.40;91.00;;;;;;5051489;28;20069;-82
2022/03/24 09:02:07;;;;;;;44.08;37.72;;;20.30;90.40;;;;;;5049190;28;20045;-84
2022/03/24 09:04:32;;;;;;;44.20;39.35;;;20.80;90.30;;;;;;5050531;28;20045;-84
2022/03/24 09:06:58;;;;;;;48.10;39.28;;;20.40;91.00;;;;;;5034565;28;20195;-84
2022/03/24 09:09:24;;;;;;;46.72;38.33;;;19.90;91.60;;;;;;5047770;28;20385;-84
2022/03/24 09:11:50;;;;;;;45.88;36.85;;;20.90;90.50;;;;;;5052554;28;20041;-83
2022/03/24 09:14:16;;;;;;;48.28;37.70;;;20.80;90.00;;;;;;5034115;28;20037;-84
2022/03/24 09:16:42;;;;;;;38.80;33.88;;;21.00;90.30;;;;;;5034392;28;20052;-83
2022/03/24 09:19:08;;;;;;;44.50;34.63;;;21.50;87.00;;;;;;5048200;28;20056;-84
2022/03/24 09:21:34;;;;;;;46.97;33.95;;;21.30;87.40;;;;;;5031335;28;20041;-83
2022/03/24 09:24:00;;;;;;;42.17;26.83;;;20.90;87.80;;;;;;5047089;28;20080;-85
2022/03/24 09:26:25;;;;;;;42.50;34.50;;;22.10;81.40;;;;;;5050795;28;20316;-84
2022/03/24 09:28:52;;;;;;;42.22;35.38;;;20.40;85.70;;;;;;5050572;28;20114;-84
2022/03/24 09:31:21;;;;;;;42.67;35.72;;;21.20;85.50;;;;;;5050479;28;20081;-83
2022/03/24 09:33:47;;;;;;;42.47;32.55;;;21.50;87.70;;;;;;5016672;28;20087;-85
2022/03/24 09:36:12;;;;;;;44.13;35.40;;;21.50;86.20;;;;;;5050497;28;20498;-84
2022/03/24 09:38:38;;;;;;;46.42;35.72;;;21.10;88.30;;;;;;5034496;28;20055;-84
2022/03/24 09:41:06;;;;;;;46.03;35.95;;;21.40;89.20;;;;;;5033660;28;20044;-85
2022/03/24 09:43:34;;;;;;;46.08;37.08;;;20.90;89.90;;;;;;5037717;28;20045;-84
2022/03/24 09:46:00;;;;;;;45.80;36.63;;;20.70;90.50;;;;;;5069203;28;20045;-83
2022/03/24 09:48:26;;;;;;;44.33;35.85;;;19.90;91.00;;;;;;5055493;28;20045;-83
2022/03/24 09:50:52;;;;;;;45.72;36.13;;;21.10;90.50;;;;;;5057851;28;20578;-83
2022/03/24 09:53:18;;;;;;;48.58;38.03;;;21.50;87.40;;;;;;5036460;28;20457;-84
2022/03/24 09:55:45;;;;;;;45.13;36.42;;;20.90;89.50;;;;;;5055599;28;20103;-84
2022/03/24 09:58:11;;;;;;;45.92;36.38;;;21.70;88.10;;;;;;5035237;28;20102;-84
2022/03/24 10:00:37;;;;;;;47.17;37.03;;;21.10;88.70;;;;;;5052567;28;20104;-84
2022/03/24 10:03:09;;;;;;;49.45;38.67;;;20.80;90.00;;;;;;5051098;28;20052;-85
2022/03/24 10:05:35;;;;;;;42.40;36.80;;;21.30;89.00;;;;;;5033681;28;20047;-84
2022/03/24 10:08:05;;;;;;;48.47;37.97;;;21.40;90.40;;;;;;5016963;28;20045;-84
2022/03/24 10:10:34;;;;;;;44.70;35.85;;;20.80;90.20;;;;;;5049273;28;20138;-84
2022/03/24 10:13:01;;;;;;;47.47;37.83;;;22.10;86.60;;;;;;5048993;28;20045;-85
2022/03/24 10:15:26;;;;;;;50.65;38.03;;;22.30;86.70;;;;;;5049535;28;20048;-83
2022/03/24 10:17:54;;;;;;;50.95;39.20;;;21.40;88.00;;;;;;5032863;28;20045;-83
2022/03/24 10:20:19;;;;;;;48.83;38.55;;;20.70;90.70;;;;;;5049629;28;20092;-84
2022/03/24 10:22:56;;;;;;;51.85;37.50;;;21.80;85.80;;;;;;5033652;28;20150;-84
2022/03/24 10:25:36;;;;;;;47.97;36.88;;;20.70;88.20;;;;;;5032677;28;20114;-84
2022/03/24 10:28:09;;;;;;;47.90;37.72;;;20.40;90.60;;;;;;5016781;28;20056;-84
2022/03/24 10:30:54;;;;;;;47.35;37.20;;;21.20;88.20;;;;;;5049769;28;20107;-81
2022/03/24 10:33:27;;;;;;;52.40;36.65;;;19.70;89.80;;;;;;5049387;28;20397;-83
2022/03/24 10:36:18;;;;;;;48.67;32.28;;;19.60;90.60;;;;;;5049733;28;20396;-82
2022/03/24 10:38:48;;;;;;;48.47;34.85;;;20.20;89.10;;;;;;5032923;28;20074;-84
2022/03/24 10:41:22;;;;;;;50.95;36.35;;;20.10;88.10;;;;;;5032072;28;20493;-84
2022/03/24 10:43:49;;;;;;;53.88;36.83;;;20.20;88.70;;;;;;5049229;28;20103;-83
2022/03/24 10:46:19;;;;;;;45.38;35.78;;;20.00;89.00;;;;;;5015990;28;20045;-84
2022/03/24 10:48:47;;;;;;;47.42;35.75;;;19.90;88.70;;;;;;5032386;28;20053;-84
2022/03/24 10:51:24;;;;;;;49.83;37.15;;;19.30;90.20;;;;;;5032441;28;20078;-84
2022/03/24 10:53:50;;;;;;;49.78;37.40;;;19.80;88.40;;;;;;5032888;28;20128;-84
2022/03/24 10:56:19;;;;;;;50.08;37.35;;;19.70;89.70;;;;;;5048818;28;20053;-84
2022/03/24 10:58:49;;;;;;;50.88;34.67;;;19.10;90.30;;;;;;5048890;28;20120;-84
2022/03/24 11:01:16;;;;;;;51.05;33.22;;;19.40;90.30;;;;;;5032346;28;20135;-82
2022/03/24 11:03:43;;;;;;;59.50;40.58;;;20.00;87.60;;;;;;5015907;28;20087;-84
2022/03/24 11:06:17;;;;;;;48.83;36.83;;;19.80;90.10;;;;;;5048115;28;20504;-84
2022/03/24 11:08:43;;;;;;;45.53;30.92;;;19.60;90.60;;;;;;5017483;28;20044;-85
2022/03/24 11:11:13;;;;;;;51.58;34.40;;;20.20;87.00;;;;;;5047928;28;20041;-83
2022/03/24 11:13:46;;;;;;;45.65;32.35;;;19.60;89.60;;;;;;5014060;28;20111;-83
2022/03/24 11:16:17;;;;;;;44.42;30.75;;;20.00;86.30;;;;;;5049062;28;20803;-84
2022/03/24 11:18:43;;;;;;;42.20;27.05;;;19.50;85.40;;;;;;5015822;28;20048;-83
2022/03/24 11:21:30;;;;;;;38.75;26.25;;;19.70;83.00;;;;;;5047552;28;20063;-83
2022/03/24 11:23:56;;;;;;;39.83;27.23;;;19.50;80.50;;;;;;5045565;28;20120;-83
2022/03/24 11:26:22;;;;;;;38.75;27.88;;;18.70;80.10;;;;;;5031883;28;20120;-83
2022/03/24 11:28:50;;;;;;;43.00;30.05;;;18.60;81.90;;;;;;5047141;28;20114;-83
2022/03/24 11:31:16;;;;;;;47.33;28.83;;;18.30;84.50;;;;;;5029205;28;20041;-84
2022/03/24 11:33:47;;;;;;;38.38;29.05;;;18.70;86.10;;;;;;5014793;28;20306;-84
2022/03/24 11:36:13;;;;;;;41.20;29.83;;;18.70;86.30;;;;;;5049433;28;20454;-84
2022/03/24 11:38:39;;;;;;;42.00;27.65;;;18.60;85.10;;;;;;5035436;28;20103;-84
2022/03/24 11:41:08;;;;;;;43.10;27.58;;;18.90;84.60;;;;;;5034807;28;20084;-82
2022/03/24 11:43:34;;;;;;;45.10;27.70;;;18.70;84.30;;;;;;5015543;28;20049;-83
2022/03/24 11:46:02;;;;;;;42.25;29.30;;;18.90;84.10;;;;;;5016820;28;20456;-82
2022/03/24 11:48:39;;;;;;;40.97;29.27;;;18.70;83.10;;;;;;5050912;28;20120;-83
2022/03/24 11:51:25;;;;;;;41.47;27.73;;;18.70;84.10;;;;;;5050354;28;20049;-83
2022/03/24 11:54:05;;;;;;;42.28;27.90;;;18.20;86.70;;;;;;5048081;28;20044;-82
2022/03/24 11:56:31;;;;;;;39.90;27.75;;;18.40;85.50;;;;;;5050881;28;20060;-82
2022/03/24 11:58:57;;;;;;;38.97;26.42;;;18.20;87.30;;;;;;5018438;28;20045;-81
2022/03/24 12:01:24;;;;;;;40.15;25.55;;;18.10;85.60;;;;;;5034366;28;20062;-81
2022/03/24 12:04:09;;;;;;;37.10;24.17;;;18.60;85.30;;;;;;5034639;28;20049;-83
2022/03/24 12:06:43;;;;;;;43.22;25.90;;;18.50;83.60;;;;;;5040440;28;20047;-83
2022/03/24 12:09:13;;;;;;;36.03;22.98;;;18.50;84.40;;;;;;5068970;28;20555;-83
2022/03/24 12:11:47;;;;;;;43.20;23.55;;;19.00;81.90;;;;;;5048550;28;20052;-82
2022/03/24 12:14:16;;;;;;;;;;;19.20;81.60;;;;;;5036707;28;20052;-82
2022/03/24 12:16:46;;;;;;;32.60;22.42;;;18.70;83.60;;;;;;5055476;28;19927;-82
2022/03/24 12:19:54;;;;;;;37.20;24.83;;;18.40;85.20;;;;;;5051739;28;20453;-82
2022/03/24 12:22:26;;;;;;;33.60;24.33;;;18.40;83.80;;;;;;5029870;28;20065;-82
2022/03/24 12:25:00;;;;;;;33.28;19.27;;;18.90;83.20;;;;;;5046646;28;20072;-81
2022/03/24 12:27:30;;;;;;;34.83;23.38;;;19.40;80.40;;;;;;5051945;28;20056;-81
2022/03/24 12:30:12;;;;;;;35.67;24.35;;;19.50;78.70;;;;;;5053257;28;20049;-81
2022/03/24 12:32:37;;;;;;;36.42;23.73;;;18.90;80.20;;;;;;5051439;28;20396;-81
2022/03/24 12:35:04;;;;;;;34.88;24.20;;;18.60;81.10;;;;;;5052710;28;20136;-82